sensor_id;sensor_type;location;lat;lon;timestamp;pressure;altitude;pressure_sealevel;temperature;humidity
56630;BME280;42502;40.732;-74.254;2023-01-28T00:00:08;101150.13;;;16.33;39.71
56630;BME280;42502;40.732;-74.254;2023-01-28T00:02:11;101152.09;;;16.33;39.63
56630;BME280;42502;40.732;-74.254;2023-01-28T00:04:13;101148.19;;;16.34;39.74
56630;BME280;42502;40.732;-74.254;2023-01-28T00:06:14;101137.66;;;16.31;39.60
56630;BME280;42502;40.732;-74.254;2023-01-28T00:08:15;101144.03;;;16.31;39.52
56630;BME280;42502;40.732;-74.254;2023-01-28T00:10:16;101132.56;;;16.33;39.35
56630;BME280;42502;40.732;-74.254;2023-01-28T00:12:20;101125.66;;;16.30;39.56
56630;BME280;42502;40.732;-74.254;2023-01-28T00:14:21;101141.56;;;16.30;39.57
56630;BME280;42502;40.732;-74.254;2023-01-28T00:16:22;101140.44;;;16.31;39.84
56630;BME280;42502;40.732;-74.254;2023-01-28T00:18:24;101133.53;;;16.28;39.54
56630;BME280;42502;40.732;-74.254;2023-01-28T00:20:28;101132.72;;;16.28;39.66
56630;BME280;42502;40.732;-74.254;2023-01-28T00:22:30;101122.69;;;16.27;39.73
56630;BME280;42502;40.732;-74.254;2023-01-28T00:24:31;101128.75;;;16.29;39.72
56630;BME280;42502;40.732;-74.254;2023-01-28T00:26:32;101133.34;;;16.25;39.81
56630;BME280;42502;40.732;-74.254;2023-01-28T00:28:33;101126.09;;;16.24;39.59
56630;BME280;42502;40.732;-74.254;2023-01-28T00:30:35;101132.72;;;16.28;39.62
56630;BME280;42502;40.732;-74.254;2023-01-28T00:32:36;101141.16;;;16.23;39.66
56630;BME280;42502;40.732;-74.254;2023-01-28T00:34:37;101151.38;;;16.27;39.58
56630;BME280;42502;40.732;-74.254;2023-01-28T00:36:38;101138.91;;;16.25;39.58
56630;BME280;42502;40.732;-74.254;2023-01-28T00:38:42;101161.72;;;16.27;39.85
56630;BME280;42502;40.732;-74.254;2023-01-28T00:40:43;101167.09;;;16.23;39.69
56630;BME280;42502;40.732;-74.254;2023-01-28T00:42:44;101172.69;;;16.23;39.64
56630;BME280;42502;40.732;-74.254;2023-01-28T00:44:45;101185.47;;;16.24;39.72
56630;BME280;42502;40.732;-74.254;2023-01-28T00:46:46;101182.34;;;16.26;39.51
56630;BME280;42502;40.732;-74.254;2023-01-28T00:48:47;101201.88;;;16.26;39.67
56630;BME280;42502;40.732;-74.254;2023-01-28T00:50:49;101203.34;;;16.23;39.63
56630;BME280;42502;40.732;-74.254;2023-01-28T00:52:50;101213.03;;;16.26;39.90
56630;BME280;42502;40.732;-74.254;2023-01-28T00:54:51;101218.09;;;16.24;39.60
56630;BME280;42502;40.732;-74.254;2023-01-28T00:56:54;101215.13;;;16.20;39.71
56630;BME280;42502;40.732;-74.254;2023-01-28T00:58:58;101219.22;;;16.23;39.73
56630;BME280;42502;40.732;-74.254;2023-01-28T01:01:09;101231.22;;;16.23;39.76
56630;BME280;42502;40.732;-74.254;2023-01-28T01:03:10;101244.31;;;16.23;39.89
56630;BME280;42502;40.732;-74.254;2023-01-28T01:05:11;101239.91;;;16.22;39.68
56630;BME280;42502;40.732;-74.254;2023-01-28T01:07:12;101246.59;;;16.21;39.51
56630;BME280;42502;40.732;-74.254;2023-01-28T01:09:13;101243.31;;;16.19;39.62
56630;BME280;42502;40.732;-74.254;2023-01-28T01:11:15;101254.97;;;16.21;39.53
56630;BME280;42502;40.732;-74.254;2023-01-28T01:13:16;101263.31;;;16.21;39.70
56630;BME280;42502;40.732;-74.254;2023-01-28T01:15:17;101260.53;;;16.21;39.71
56630;BME280;42502;40.732;-74.254;2023-01-28T01:17:19;101256.94;;;16.20;39.77
56630;BME280;42502;40.732;-74.254;2023-01-28T01:19:21;101256.72;;;16.16;39.63
56630;BME280;42502;40.732;-74.254;2023-01-28T01:21:24;101264.44;;;16.20;39.37
56630;BME280;42502;40.732;-74.254;2023-01-28T01:23:26;101264.75;;;16.18;39.54
56630;BME280;42502;40.732;-74.254;2023-01-28T01:25:28;101263.44;;;16.15;39.53
56630;BME280;42502;40.732;-74.254;2023-01-28T01:27:29;101254.53;;;16.13;39.50
56630;BME280;42502;40.732;-74.254;2023-01-28T01:29:31;101258.69;;;16.16;39.60
56630;BME280;42502;40.732;-74.254;2023-01-28T01:31:33;101255.91;;;16.16;39.45
56630;BME280;42502;40.732;-74.254;2023-01-28T01:33:34;101258.69;;;16.16;39.71
56630;BME280;42502;40.732;-74.254;2023-01-28T01:35:35;101252.28;;;16.15;39.60
56630;BME280;42502;40.732;-74.254;2023-01-28T01:37:36;101247.63;;;16.11;39.56
56630;BME280;42502;40.732;-74.254;2023-01-28T01:39:37;101248.97;;;16.13;39.40
56630;BME280;42502;40.732;-74.254;2023-01-28T01:41:40;101249.28;;;16.12;39.84
56630;BME280;42502;40.732;-74.254;2023-01-28T01:44:02;101258.50;;;16.12;39.54
56630;BME280;42502;40.732;-74.254;2023-01-28T01:46:03;101249.59;;;16.10;39.52
56630;BME280;42502;40.732;-74.254;2023-01-28T01:48:12;101249.59;;;16.10;39.72
56630;BME280;42502;40.732;-74.254;2023-01-28T01:50:27;101242.97;;;16.06;39.51
56630;BME280;42502;40.732;-74.254;2023-01-28T01:52:34;101243.81;;;16.07;39.71
56630;BME280;42502;40.732;-74.254;2023-01-28T01:54:36;101235.44;;;16.07;39.54
56630;BME280;42502;40.732;-74.254;2023-01-28T01:56:42;101252.06;;;16.12;39.66
56630;BME280;42502;40.732;-74.254;2023-01-28T01:58:46;101252.38;;;16.10;39.67
56630;BME280;42502;40.732;-74.254;2023-01-28T02:00:49;101245.97;;;16.10;39.68
56630;BME280;42502;40.732;-74.254;2023-01-28T02:02:51;101245.97;;;16.10;39.51
56630;BME280;42502;40.732;-74.254;2023-01-28T02:04:53;101251.56;;;16.10;39.61
56630;BME280;42502;40.732;-74.254;2023-01-28T02:06:54;101257.44;;;16.08;39.66
56630;BME280;42502;40.732;-74.254;2023-01-28T02:08:57;101248.53;;;16.06;39.39
56630;BME280;42502;40.732;-74.254;2023-01-28T02:11:01;101220.59;;;15.84;39.44
56630;BME280;42502;40.732;-74.254;2023-01-28T02:13:04;101257.44;;;16.08;39.55
56630;BME280;42502;40.732;-74.254;2023-01-28T02:15:09;101261.34;;;16.07;39.42
56630;BME280;42502;40.732;-74.254;2023-01-28T02:17:11;101261.97;;;16.04;39.57
56630;BME280;42502;40.732;-74.254;2023-01-28T02:19:13;101271.69;;;16.07;39.66
56630;BME280;42502;40.732;-74.254;2023-01-28T02:23:54;101272.00;;;16.05;39.68
56630;BME280;42502;40.732;-74.254;2023-01-28T02:30:39;101266.50;;;16.00;39.64
56630;BME280;42502;40.732;-74.254;2023-01-28T02:34:58;101268.16;;;16.01;39.41
56630;BME280;42502;40.732;-74.254;2023-01-28T02:39:19;101269.81;;;16.02;39.57
56630;BME280;42502;40.732;-74.254;2023-01-28T02:41:31;101263.41;;;16.02;39.74
56630;BME280;42502;40.732;-74.254;2023-01-28T02:43:42;101257.03;;;16.01;39.73
56630;BME280;42502;40.732;-74.254;2023-01-28T02:45:44;101249.91;;;15.95;39.60
56630;BME280;42502;40.732;-74.254;2023-01-28T02:48:03;101259.00;;;16.01;39.58
56630;BME280;42502;40.732;-74.254;2023-01-28T02:50:15;101259.59;;;15.97;39.58
56630;BME280;42502;40.732;-74.254;2023-01-28T02:52:31;101267.66;;;15.99;39.40
56630;BME280;42502;40.732;-74.254;2023-01-28T02:55:17;101253.19;;;15.97;39.68
56630;BME280;42502;40.732;-74.254;2023-01-28T02:57:49;101245.44;;;15.94;39.62
56630;BME280;42502;40.732;-74.254;2023-01-28T03:00:15;101253.19;;;15.97;39.58
56630;BME280;42502;40.732;-74.254;2023-01-28T03:02:37;101257.13;;;15.96;39.65
56630;BME280;42502;40.732;-74.254;2023-01-28T03:04:49;101254.13;;;15.92;39.40
56630;BME280;42502;40.732;-74.254;2023-01-28T03:06:57;101258.25;;;15.95;39.58
56630;BME280;42502;40.732;-74.254;2023-01-28T03:09:07;101256.59;;;15.94;39.35
56630;BME280;42502;40.732;-74.254;2023-01-28T03:11:22;101252.69;;;15.95;39.60
56630;BME280;42502;40.732;-74.254;2023-01-28T03:13:44;101240.28;;;15.87;39.46
56630;BME280;42502;40.732;-74.254;2023-01-28T03:16:05;101242.16;;;15.92;39.17
56630;BME280;42502;40.732;-74.254;2023-01-28T03:18:31;101244.94;;;15.92;39.46
56630;BME280;42502;40.732;-74.254;2023-01-28T03:21:07;101240.50;;;15.91;39.46
56630;BME280;42502;40.732;-74.254;2023-01-28T03:23:37;101234.41;;;15.89;39.32
56630;BME280;42502;40.732;-74.254;2023-01-28T03:26:00;101234.91;;;15.91;39.48
56630;BME280;42502;40.732;-74.254;2023-01-28T03:28:22;101225.75;;;15.90;39.52
56630;BME280;42502;40.732;-74.254;2023-01-28T03:33:11;101218.31;;;15.86;39.47
56630;BME280;42502;40.732;-74.254;2023-01-28T03:35:33;101215.22;;;15.87;39.40
56630;BME280;42502;40.732;-74.254;2023-01-28T03:37:53;101211.38;;;15.83;39.47
56630;BME280;42502;40.732;-74.254;2023-01-28T03:39:57;101211.06;;;15.85;39.34
56630;BME280;42502;40.732;-74.254;2023-01-28T03:42:10;101218.31;;;15.86;39.60
56630;BME280;42502;40.732;-74.254;2023-01-28T03:44:11;101205.19;;;15.86;39.24
56630;BME280;42502;40.732;-74.254;2023-01-28T03:46:31;101200.56;;;15.81;39.66
56630;BME280;42502;40.732;-74.254;2023-01-28T03:48:32;101203.88;;;15.84;39.41
56630;BME280;42502;40.732;-74.254;2023-01-28T03:50:33;101205.50;;;15.85;39.45
56630;BME280;42502;40.732;-74.254;2023-01-28T03:52:34;101213.03;;;15.84;39.42
56630;BME280;42502;40.732;-74.254;2023-01-28T03:54:38;101206.66;;;15.84;39.61
56630;BME280;42502;40.732;-74.254;2023-01-28T03:56:39;101201.91;;;15.84;39.63
56630;BME280;42502;40.732;-74.254;2023-01-28T03:58:40;101201.09;;;15.84;39.54
56630;BME280;42502;40.732;-74.254;2023-01-28T04:01:07;101206.66;;;15.84;39.64
56630;BME280;42502;40.732;-74.254;2023-01-28T04:03:09;101206.13;;;15.81;39.95
56630;BME280;42502;40.732;-74.254;2023-01-28T04:05:16;101208.91;;;15.81;39.99
56630;BME280;42502;40.732;-74.254;2023-01-28T04:07:22;101205.00;;;15.83;39.84
56630;BME280;42502;40.732;-74.254;2023-01-28T04:09:23;101201.41;;;15.82;39.66
56630;BME280;42502;40.732;-74.254;2023-01-28T04:11:25;101195.81;;;15.82;39.81
56630;BME280;42502;40.732;-74.254;2023-01-28T04:13:26;101200.56;;;15.81;39.77
56630;BME280;42502;40.732;-74.254;2023-01-28T04:15:27;101198.06;;;15.80;39.82
56630;BME280;42502;40.732;-74.254;2023-01-28T04:17:28;101204.19;;;15.82;39.97
56630;BME280;42502;40.732;-74.254;2023-01-28T04:19:29;101206.97;;;15.82;39.77
56630;BME280;42502;40.732;-74.254;2023-01-28T04:21:36;101198.97;;;15.75;39.93
56630;BME280;42502;40.732;-74.254;2023-01-28T04:23:37;101195.88;;;15.77;39.78
56630;BME280;42502;40.732;-74.254;2023-01-28T04:25:38;101187.78;;;15.80;39.69
56630;BME280;42502;40.732;-74.254;2023-01-28T04:27:39;101172.53;;;15.73;40.07
56630;BME280;42502;40.732;-74.254;2023-01-28T04:29:40;101187.78;;;15.80;39.99
56630;BME280;42502;40.732;-74.254;2023-01-28T04:31:41;101186.63;;;15.81;40.01
56630;BME280;42502;40.732;-74.254;2023-01-28T04:33:42;101171.13;;;15.75;40.04
56630;BME280;42502;40.732;-74.254;2023-01-28T04:35:42;101180.53;;;15.79;39.98
56630;BME280;42502;40.732;-74.254;2023-01-28T04:37:44;101185.00;;;15.80;39.96
56630;BME280;42502;40.732;-74.254;2023-01-28T04:39:45;101180.53;;;15.79;40.14
56630;BME280;42502;40.732;-74.254;2023-01-28T04:41:46;101176.91;;;15.79;39.79
56630;BME280;42502;40.732;-74.254;2023-01-28T04:43:49;101169.41;;;15.79;40.01
56630;BME280;42502;40.732;-74.254;2023-01-28T04:45:50;101164.13;;;15.78;39.80
56630;BME280;42502;40.732;-74.254;2023-01-28T04:47:57;101158.56;;;15.78;39.76
56630;BME280;42502;40.732;-74.254;2023-01-28T04:49:58;101170.53;;;15.78;39.80
56630;BME280;42502;40.732;-74.254;2023-01-28T04:52:01;101173.31;;;15.78;39.83
56630;BME280;42502;40.732;-74.254;2023-01-28T04:54:02;101160.50;;;15.77;39.81
56630;BME280;42502;40.732;-74.254;2023-01-28T04:56:03;101161.63;;;15.76;39.86
56630;BME280;42502;40.732;-74.254;2023-01-28T04:58:04;101154.94;;;15.77;39.76
56630;BME280;42502;40.732;-74.254;2023-01-28T05:00:08;101151.09;;;15.73;39.92
56630;BME280;42502;40.732;-74.254;2023-01-28T05:02:09;101151.31;;;15.77;40.02
56630;BME280;42502;40.732;-74.254;2023-01-28T05:04:10;101144.91;;;15.76;39.95
56630;BME280;42502;40.732;-74.254;2023-01-28T05:06:11;101148.81;;;15.75;39.71
56630;BME280;42502;40.732;-74.254;2023-01-28T05:08:12;101146.16;;;15.70;39.78
56630;BME280;42502;40.732;-74.254;2023-01-28T05:10:13;101145.53;;;15.73;40.06
56630;BME280;42502;40.732;-74.254;2023-01-28T05:12:14;101148.00;;;15.75;39.91
56630;BME280;42502;40.732;-74.254;2023-01-28T05:14:14;101149.44;;;15.72;39.92
56630;BME280;42502;40.732;-74.254;2023-01-28T05:16:21;101151.94;;;15.74;39.89
56630;BME280;42502;40.732;-74.254;2023-01-28T05:18:22;101159.47;;;15.73;39.48
56630;BME280;42502;40.732;-74.254;2023-01-28T05:20:23;101148.09;;;15.70;39.62
56630;BME280;42502;40.732;-74.254;2023-01-28T05:22:24;101158.13;;;15.71;39.84
56630;BME280;42502;40.732;-74.254;2023-01-28T05:24:25;101161.41;;;15.73;39.79
56630;BME280;42502;40.732;-74.254;2023-01-28T05:26:26;101170.91;;;15.72;39.56
56630;BME280;42502;40.732;-74.254;2023-01-28T05:28:29;101161.22;;;15.69;39.52
56630;BME280;42502;40.732;-74.254;2023-01-28T05:30:30;101174.63;;;15.67;39.53
56630;BME280;42502;40.732;-74.254;2023-01-28T05:32:31;101167.09;;;15.68;39.40
56630;BME280;42502;40.732;-74.254;2023-01-28T05:34:32;101178.22;;;15.68;39.56
56630;BME280;42502;40.732;-74.254;2023-01-28T05:36:35;101175.75;;;15.66;39.63
56630;BME280;42502;40.732;-74.254;2023-01-28T05:38:36;101184.63;;;15.68;39.52
56630;BME280;42502;40.732;-74.254;2023-01-28T05:40:37;101172.66;;;15.68;39.80
56630;BME280;42502;40.732;-74.254;2023-01-28T05:42:38;101169.88;;;15.68;39.91
56630;BME280;42502;40.732;-74.254;2023-01-28T05:44:39;101164.63;;;15.66;39.46
56630;BME280;42502;40.732;-74.254;2023-01-28T05:46:40;101168.84;;;15.63;39.56
56630;BME280;42502;40.732;-74.254;2023-01-28T05:48:47;101178.03;;;15.64;39.73
56630;BME280;42502;40.732;-74.254;2023-01-28T05:50:57;101171.31;;;15.65;39.54
56630;BME280;42502;40.732;-74.254;2023-01-28T05:52:58;101183.28;;;15.66;39.77
56630;BME280;42502;40.732;-74.254;2023-01-28T05:54:59;101168.63;;;15.60;39.72
56630;BME280;42502;40.732;-74.254;2023-01-28T05:57:00;101175.88;;;15.61;39.58
56630;BME280;42502;40.732;-74.254;2023-01-28T05:59:02;101179.16;;;15.63;39.74
56630;BME280;42502;40.732;-74.254;2023-01-28T06:01:03;101171.41;;;15.60;39.49
56630;BME280;42502;40.732;-74.254;2023-01-28T06:03:04;101168.13;;;15.58;39.58
56630;BME280;42502;40.732;-74.254;2023-01-28T06:05:06;101173.06;;;15.61;39.43
56630;BME280;42502;40.732;-74.254;2023-01-28T06:07:06;101179.16;;;15.63;39.54
56630;BME280;42502;40.732;-74.254;2023-01-28T06:09:07;101178.97;;;15.59;39.52
56630;BME280;42502;40.732;-74.254;2023-01-28T06:11:08;101176.47;;;15.58;39.52
56630;BME280;42502;40.732;-74.254;2023-01-28T06:13:09;101175.63;;;15.57;39.35
56630;BME280;42502;40.732;-74.254;2023-01-28T06:15:13;101192.88;;;15.59;39.34
56630;BME280;42502;40.732;-74.254;2023-01-28T06:17:14;101196.47;;;15.60;39.40
56630;BME280;42502;40.732;-74.254;2023-01-28T06:19:15;101194.50;;;15.60;39.51
56630;BME280;42502;40.732;-74.254;2023-01-28T06:21:15;101200.41;;;15.59;39.57
56630;BME280;42502;40.732;-74.254;2023-01-28T06:23:17;101194.81;;;15.59;39.58
56630;BME280;42502;40.732;-74.254;2023-01-28T06:25:18;101189.88;;;15.56;39.46
56630;BME280;42502;40.732;-74.254;2023-01-28T06:27:19;101181.00;;;15.54;39.52
56630;BME280;42502;40.732;-74.254;2023-01-28T06:29:20;101188.25;;;15.55;39.63
56630;BME280;42502;40.732;-74.254;2023-01-28T06:31:21;101176.06;;;15.51;39.17
56630;BME280;42502;40.732;-74.254;2023-01-28T06:33:22;101182.97;;;15.53;39.33
56630;BME280;42502;40.732;-74.254;2023-01-28T06:35:23;101187.19;;;15.51;39.10
56630;BME280;42502;40.732;-74.254;2023-01-28T06:37:24;101204.94;;;15.55;39.50
56630;BME280;42502;40.732;-74.254;2023-01-28T06:39:25;101197.22;;;15.52;39.61
56630;BME280;42502;40.732;-74.254;2023-01-28T06:41:28;101182.84;;;15.44;39.31
56630;BME280;42502;40.732;-74.254;2023-01-28T06:43:29;101209.97;;;15.53;39.42
56630;BME280;42502;40.732;-74.254;2023-01-28T06:45:33;101198.31;;;15.51;39.33
56630;BME280;42502;40.732;-74.254;2023-01-28T06:47:34;101207.50;;;15.51;39.17
56630;BME280;42502;40.732;-74.254;2023-01-28T06:49:35;101209.47;;;15.51;39.09
56630;BME280;42502;40.732;-74.254;2023-01-28T06:51:38;101213.91;;;15.52;39.34
56630;BME280;42502;40.732;-74.254;2023-01-28T06:53:39;101209.47;;;15.51;39.11
56630;BME280;42502;40.732;-74.254;2023-01-28T06:55:40;101203.09;;;15.50;39.04
56630;BME280;42502;40.732;-74.254;2023-01-28T06:57:41;101209.22;;;15.47;39.08
56630;BME280;42502;40.732;-74.254;2023-01-28T06:59:42;101210.09;;;15.48;39.04
56630;BME280;42502;40.732;-74.254;2023-01-28T07:01:45;101212.31;;;15.45;39.10
56630;BME280;42502;40.732;-74.254;2023-01-28T07:03:46;101202.34;;;15.44;38.92
56630;BME280;42502;40.732;-74.254;2023-01-28T07:05:50;101194.59;;;15.41;38.90
56630;BME280;42502;40.732;-74.254;2023-01-28T07:07:51;101202.84;;;15.46;39.11
56630;BME280;42502;40.732;-74.254;2023-01-28T07:09:52;101194.91;;;15.40;39.14
56630;BME280;42502;40.732;-74.254;2023-01-28T07:11:56;101203.97;;;15.45;39.26
56630;BME280;42502;40.732;-74.254;2023-01-28T07:13:57;101201.50;;;15.44;39.12
56630;BME280;42502;40.732;-74.254;2023-01-28T07:15:58;101203.16;;;15.45;38.77
56630;BME280;42502;40.732;-74.254;2023-01-28T07:17:59;101191.81;;;15.41;38.88
56630;BME280;42502;40.732;-74.254;2023-01-28T07:20:06;101193.25;;;15.39;39.04
56630;BME280;42502;40.732;-74.254;2023-01-28T07:22:07;101194.59;;;15.41;38.65
56630;BME280;42502;40.732;-74.254;2023-01-28T07:24:08;101192.94;;;15.40;39.00
56630;BME280;42502;40.732;-74.254;2023-01-28T07:26:09;101198.50;;;15.40;38.63
56630;BME280;42502;40.732;-74.254;2023-01-28T07:28:10;101195.22;;;15.38;39.00
56630;BME280;42502;40.732;-74.254;2023-01-28T07:30:11;101204.38;;;15.39;38.75
56630;BME280;42502;40.732;-74.254;2023-01-28T07:32:12;101204.06;;;15.40;38.58
56630;BME280;42502;40.732;-74.254;2023-01-28T07:34:19;101194.69;;;15.36;38.72
56630;BME280;42502;40.732;-74.254;2023-01-28T07:36:20;101195.22;;;15.38;38.38
56630;BME280;42502;40.732;-74.254;2023-01-28T07:38:20;101201.59;;;15.39;38.88
56630;BME280;42502;40.732;-74.254;2023-01-28T07:40:28;101196.03;;;15.39;38.68
56630;BME280;42502;40.732;-74.254;2023-01-28T07:42:32;101196.03;;;15.39;38.83
56630;BME280;42502;40.732;-74.254;2023-01-28T07:44:39;101198.91;;;15.34;38.82
56630;BME280;42502;40.732;-74.254;2023-01-28T07:46:45;101200.25;;;15.36;38.87
56630;BME280;42502;40.732;-74.254;2023-01-28T07:48:46;101203.88;;;15.37;38.75
56630;BME280;42502;40.732;-74.254;2023-01-28T07:50:47;101205.81;;;15.36;38.64
56630;BME280;42502;40.732;-74.254;2023-01-28T07:52:49;101198.63;;;15.35;38.49
56630;BME280;42502;40.732;-74.254;2023-01-28T07:54:50;101192.81;;;15.32;38.65
56630;BME280;42502;40.732;-74.254;2023-01-28T07:56:50;101199.72;;;15.34;38.57
56630;BME280;42502;40.732;-74.254;2023-01-28T07:58:51;101186.44;;;15.31;38.50
56630;BME280;42502;40.732;-74.254;2023-01-28T08:00:56;101202.81;;;15.33;38.55
56630;BME280;42502;40.732;-74.254;2023-01-28T08:03:03;101193.97;;;15.31;38.44
56630;BME280;42502;40.732;-74.254;2023-01-28T08:05:04;101190.03;;;15.32;38.36
56630;BME280;42502;40.732;-74.254;2023-01-28T08:07:05;101184.25;;;15.28;38.68
56630;BME280;42502;40.732;-74.254;2023-01-28T08:09:07;101190.34;;;15.30;38.45
56630;BME280;42502;40.732;-74.254;2023-01-28T08:11:09;101191.19;;;15.31;38.18
56630;BME280;42502;40.732;-74.254;2023-01-28T08:13:12;101193.97;;;15.31;38.48
56630;BME280;42502;40.732;-74.254;2023-01-28T08:15:13;101195.91;;;15.30;38.59
56630;BME280;42502;40.732;-74.254;2023-01-28T08:17:14;101194.28;;;15.29;38.21
56630;BME280;42502;40.732;-74.254;2023-01-28T08:19:15;101196.00;;;15.25;38.64
56630;BME280;42502;40.732;-74.254;2023-01-28T08:21:17;101197.88;;;15.30;38.19
56630;BME280;42502;40.732;-74.254;2023-01-28T08:23:18;101209.31;;;15.28;38.34
56630;BME280;42502;40.732;-74.254;2023-01-28T08:25:19;101208.78;;;15.26;38.39
56630;BME280;42502;40.732;-74.254;2023-01-28T08:27:20;101213.22;;;15.27;38.23
56630;BME280;42502;40.732;-74.254;2023-01-28T08:29:21;101191.03;;;15.22;38.28
56630;BME280;42502;40.732;-74.254;2023-01-28T08:31:26;101202.69;;;15.24;38.25
56630;BME280;42502;40.732;-74.254;2023-01-28T08:33:28;101209.63;;;15.26;38.59
56630;BME280;42502;40.732;-74.254;2023-01-28T08:35:32;101199.28;;;15.27;38.45
56630;BME280;42502;40.732;-74.254;2023-01-28T08:37:33;101203.84;;;15.23;38.43
56630;BME280;42502;40.732;-74.254;2023-01-28T08:39:37;101195.50;;;15.23;38.18
56630;BME280;42502;40.732;-74.254;2023-01-28T08:41:38;101189.06;;;15.22;38.34
56630;BME280;42502;40.732;-74.254;2023-01-28T08:43:39;101201.56;;;15.25;38.15
56630;BME280;42502;40.732;-74.254;2023-01-28T08:45:40;101203.00;;;15.22;38.42
56630;BME280;42502;40.732;-74.254;2023-01-28T08:47:51;101210.84;;;15.20;38.47
56630;BME280;42502;40.732;-74.254;2023-01-28T08:49:52;101203.84;;;15.23;38.45
56630;BME280;42502;40.732;-74.254;2023-01-28T08:51:59;101202.19;;;15.22;38.49
56630;BME280;42502;40.732;-74.254;2023-01-28T08:54:00;101186.47;;;15.12;38.58
56630;BME280;42502;40.732;-74.254;2023-01-28T08:56:01;101213.31;;;15.22;38.50
56630;BME280;42502;40.732;-74.254;2023-01-28T08:58:04;101217.81;;;15.18;38.44
56630;BME280;42502;40.732;-74.254;2023-01-28T09:00:08;101213.91;;;15.19;38.17
56630;BME280;42502;40.732;-74.254;2023-01-28T09:02:13;101211.13;;;15.19;38.08
56630;BME280;42502;40.732;-74.254;2023-01-28T09:04:14;101207.31;;;15.15;38.34
56630;BME280;42502;40.732;-74.254;2023-01-28T09:06:18;101208.97;;;15.16;38.37
56630;BME280;42502;40.732;-74.254;2023-01-28T09:08:19;101213.06;;;15.18;38.33
56630;BME280;42502;40.732;-74.254;2023-01-28T09:10:20;101206.69;;;15.18;38.28
56630;BME280;42502;40.732;-74.254;2023-01-28T09:12:21;101211.44;;;15.17;38.49
56630;BME280;42502;40.732;-74.254;2023-01-28T09:14:22;101205.03;;;15.17;38.17
56630;BME280;42502;40.732;-74.254;2023-01-28T09:16:23;101208.97;;;15.16;38.46
56630;BME280;42502;40.732;-74.254;2023-01-28T09:18:24;101198.44;;;15.13;38.35
56630;BME280;42502;40.732;-74.254;2023-01-28T09:20:26;101209.78;;;15.16;38.15
56630;BME280;42502;40.732;-74.254;2023-01-28T09:22:27;101202.03;;;15.13;38.18
56630;BME280;42502;40.732;-74.254;2023-01-28T09:24:27;101193.69;;;15.13;38.25
56630;BME280;42502;40.732;-74.254;2023-01-28T09:26:28;101188.13;;;15.13;38.00
56630;BME280;42502;40.732;-74.254;2023-01-28T09:28:30;101191.72;;;15.14;38.23
56630;BME280;42502;40.732;-74.254;2023-01-28T09:30:31;101188.94;;;15.14;37.93
56630;BME280;42502;40.732;-74.254;2023-01-28T09:32:39;101198.44;;;15.13;38.03
56630;BME280;42502;40.732;-74.254;2023-01-28T09:34:49;101206.78;;;15.13;38.22
56630;BME280;42502;40.732;-74.254;2023-01-28T09:36:52;101193.50;;;15.09;38.33
56630;BME280;42502;40.732;-74.254;2023-01-28T09:38:53;101196.78;;;15.12;38.16
56630;BME280;42502;40.732;-74.254;2023-01-28T09:40:54;101193.19;;;15.11;38.11
56630;BME280;42502;40.732;-74.254;2023-01-28T09:45:44;101196.88;;;15.06;38.31
56630;BME280;42502;40.732;-74.254;2023-01-28T09:47:55;101196.03;;;15.06;38.32
56630;BME280;42502;40.732;-74.254;2023-01-28T09:49:59;101201.84;;;15.09;38.22
56630;BME280;42502;40.732;-74.254;2023-01-28T09:52:03;101207.41;;;15.09;38.01
56630;BME280;42502;40.732;-74.254;2023-01-28T09:54:14;101196.56;;;15.08;37.94
56630;BME280;42502;40.732;-74.254;2023-01-28T09:56:30;101197.69;;;15.07;38.40
56630;BME280;42502;40.732;-74.254;2023-01-28T09:58:31;101190.16;;;15.07;38.23
56630;BME280;42502;40.732;-74.254;2023-01-28T10:03:22;101186.88;;;15.05;37.94
56630;BME280;42502;40.732;-74.254;2023-01-28T10:10:20;101193.84;;;15.03;38.34
56630;BME280;42502;40.732;-74.254;2023-01-28T10:17:02;101218.91;;;15.03;38.05
56630;BME280;42502;40.732;-74.254;2023-01-28T10:19:18;101215.59;;;15.01;38.18
56630;BME280;42502;40.732;-74.254;2023-01-28T10:22:01;101210.34;;;14.99;38.17
56630;BME280;42502;40.732;-74.254;2023-01-28T10:24:14;101212.00;;;15.00;38.12
56630;BME280;42502;40.732;-74.254;2023-01-28T10:26:26;101215.91;;;14.99;38.10
56630;BME280;42502;40.732;-74.254;2023-01-28T10:28:33;101207.25;;;15.01;38.18
56630;BME280;42502;40.732;-74.254;2023-01-28T10:30:35;101212.63;;;14.97;38.28
56630;BME280;42502;40.732;-74.254;2023-01-28T10:32:40;101214.25;;;14.98;38.16
56630;BME280;42502;40.732;-74.254;2023-01-28T10:34:43;101203.72;;;14.95;38.00
56630;BME280;42502;40.732;-74.254;2023-01-28T10:36:45;101208.69;;;14.98;38.20
56630;BME280;42502;40.732;-74.254;2023-01-28T10:38:50;101209.59;;;14.93;38.18
56630;BME280;42502;40.732;-74.254;2023-01-28T10:40:51;101209.84;;;14.97;38.16
56630;BME280;42502;40.732;-74.254;2023-01-28T10:42:56;101209.84;;;14.97;37.93
56630;BME280;42502;40.732;-74.254;2023-01-28T10:45:30;101206.50;;;14.95;38.10
56630;BME280;42502;40.732;-74.254;2023-01-28T10:47:38;101204.56;;;14.96;37.96
56630;BME280;42502;40.732;-74.254;2023-01-28T10:49:46;101201.03;;;14.90;38.12
56630;BME280;42502;40.732;-74.254;2023-01-28T10:51:49;101202.69;;;14.91;37.75
56630;BME280;42502;40.732;-74.254;2023-01-28T10:53:53;101214.94;;;14.90;38.03
56630;BME280;42502;40.732;-74.254;2023-01-28T10:55:57;101220.50;;;14.90;37.85
56630;BME280;42502;40.732;-74.254;2023-01-28T10:57:59;101225.47;;;14.93;38.22
56630;BME280;42502;40.732;-74.254;2023-01-28T11:00:34;101226.59;;;14.92;38.09
56630;BME280;42502;40.732;-74.254;2023-01-28T11:02:47;101242.16;;;14.93;38.14